KAFN/AFN METAR and TAF weather

Enter ICAO airport designator
Station Type Date Time Source
KAFN METAR 2018/01/22 11:52 UTC NOAA

KAFN 221152Z AUTO 00000KT 2 1/2SM BR OVC006 01/00 A3017 RMK AO2 CIG 004V009 SLP235 60000 I1001 I6001 T00060000 10006 21011 53008


Station Type Date Time Source
KAFN Decoded METAR 2018/01/22 11:52 UTC NOAA

JAFFREY MUNI-SILVER RANCH, NH, United States (KAFN) 42-48N 72-00W 313M
Jan 22, 2018 - 06:52 AM EST / 2018.01.22 1152 UTC
Wind: Calm:0
Visibility: 2 1/2 mile(s):0
Sky conditions: overcast
Weather: mist
Temperature: 33.1 F (0.6 C)
Dew Point: 32.0 F (0.0 C)
Relative Humidity: 95%
Pressure (altimeter): 30.17 in. Hg (1021 hPa)
Pressure tendency: 0.02 inches (0.8 hPa) higher than three hours ago
ob: KAFN 221152Z AUTO 00000KT 2 1/2SM BR OVC006 01/00 A3017 RMK AO2 CIG 004V009 SLP235 60000 I1001 I6001 T00060000 10006 21011 53008
cycle: 12

Station Type Date Time Source
KAFN TAF UTC NOAA

Error!


Example: see airport list